createdAt,value
2019-01-21T00:00:15.293Z,0
2019-01-21T00:01:15.975Z,0
2019-01-21T00:02:16.380Z,0
2019-01-21T00:03:17.463Z,0
2019-01-21T00:04:18.154Z,0
2019-01-21T00:05:18.557Z,0
2019-01-21T00:06:19.238Z,0
2019-01-21T00:07:19.922Z,0
2019-01-21T00:08:20.327Z,0
2019-01-21T00:09:21.617Z,0
2019-01-21T00:10:21.028Z,0
2019-01-21T00:11:21.992Z,0
2019-01-21T00:12:22.689Z,0
2019-01-21T00:13:22.783Z,0
2019-01-21T00:14:22.909Z,0
2019-01-21T00:15:23.867Z,0
2019-01-21T00:16:25.138Z,0
2019-01-21T00:17:25.268Z,0
2019-01-21T00:18:26.397Z,0
2019-01-21T00:19:27.074Z,0
2019-01-21T00:20:27.768Z,0
2019-01-21T00:21:28.448Z,0
2019-01-21T00:22:29.407Z,0
2019-01-21T00:23:29.787Z,0
2019-01-21T00:24:30.467Z,0
2019-01-21T00:25:31.870Z,0
2019-01-21T00:26:32.589Z,0
2019-01-21T00:27:33.267Z,0
2019-01-21T00:28:33.670Z,0
2019-01-21T00:29:34.096Z,0
2019-01-21T00:30:34.779Z,0
2019-01-21T00:31:34.910Z,0
2019-01-21T00:32:36.593Z,0
2019-01-21T00:33:37.413Z,0
2019-01-21T00:34:37.926Z,0
2019-01-21T00:35:38.050Z,0
2019-01-21T00:36:39.506Z,0
2019-01-21T00:37:40.191Z,0
2019-01-21T00:38:40.318Z,0
2019-01-21T00:39:42.000Z,0
2019-01-21T00:40:42.145Z,0
2019-01-21T00:41:43.829Z,0
2019-01-21T00:42:44.791Z,0
2019-01-21T00:43:45.713Z,0
2019-01-21T00:44:45.397Z,0
2019-01-21T00:45:45.802Z,0
2019-01-21T00:46:46.488Z,0
2019-01-21T00:47:47.171Z,0
2019-01-21T00:48:48.573Z,0
2019-01-21T00:49:49.263Z,0
2019-01-21T00:50:49.392Z,0
2019-01-21T00:51:50.518Z,0
2019-01-21T00:52:51.478Z,0
2019-01-21T00:53:51.733Z,0
2019-01-21T00:54:53.417Z,0
2019-01-21T00:55:53.541Z,0
2019-01-21T00:56:55.504Z,0
2019-01-21T00:57:55.914Z,0
2019-01-21T00:58:56.592Z,0
2019-01-21T00:59:57.273Z,0
2019-01-21T01:00:57.678Z,0
2019-01-21T01:01:58.636Z,0
2019-01-21T01:02:59.044Z,0
2019-01-21T01:04:00.135Z,0
2019-01-21T01:05:01.416Z,0
2019-01-21T01:06:01.417Z,0
2019-01-21T01:07:02.143Z,0
2019-01-21T01:08:03.377Z,0
2019-01-21T01:09:04.070Z,0
2019-01-21T01:10:05.028Z,0
2019-01-21T01:11:05.432Z,0
2019-01-21T01:12:05.836Z,0
2019-01-21T01:13:06.811Z,0
2019-01-21T01:14:06.637Z,0
2019-01-21T01:15:07.042Z,0
2019-01-21T01:16:07.723Z,0
2019-01-21T01:17:08.129Z,0
2019-01-21T01:18:09.084Z,0
2019-01-21T01:19:09.764Z,0
2019-01-21T01:20:11.327Z,0
2019-01-21T01:21:11.285Z,0
2019-01-21T01:22:11.967Z,0
2019-01-21T01:23:13.091Z,0
2019-01-21T01:24:13.621Z,0
2019-01-21T01:25:14.305Z,0
2019-01-21T01:26:15.004Z,0
2019-01-21T01:27:15.409Z,0
2019-01-21T01:28:17.093Z,0
2019-01-21T01:29:17.777Z,0
2019-01-21T01:30:18.733Z,0
2019-01-21T01:31:19.692Z,0
2019-01-21T01:32:20.097Z,0
2019-01-21T01:33:21.608Z,0
2019-01-21T01:34:21.426Z,0
2019-01-21T01:34:44.268Z,0
2019-01-21T01:35:45.637Z,0
2019-01-21T01:36:46.039Z,0
2019-01-21T01:37:47.445Z,0
2019-01-21T01:38:47.846Z,0
2019-01-21T01:39:48.530Z,0
2019-01-21T01:40:49.490Z,0
2019-01-21T01:41:49.615Z,0
2019-01-21T01:42:50.750Z,0
2019-01-21T01:43:52.165Z,0
2019-01-21T01:44:52.575Z,0
2019-01-21T01:45:52.538Z,0
2019-01-21T01:46:52.949Z,0
2019-01-21T01:47:54.634Z,0
2019-01-21T01:48:55.053Z,0
2019-01-21T01:49:57.204Z,0
2019-01-21T01:50:55.903Z,0
2019-01-21T01:51:56.608Z,0
2019-01-21T01:52:57.584Z,0
2019-01-21T01:53:58.283Z,0
2019-01-21T01:54:58.689Z,0
2019-01-21T01:56:00.349Z,0
2019-01-21T01:57:01.312Z,0
2019-01-21T01:58:01.005Z,0
2019-01-21T01:59:02.606Z,0
2019-01-21T02:00:04.423Z,0
2019-01-21T02:01:04.239Z,0
2019-01-21T02:02:04.945Z,0
2019-01-21T02:03:05.372Z,0
2019-01-21T02:04:05.778Z,0
2019-01-21T02:05:07.477Z,0
2019-01-21T02:06:07.857Z,0
2019-01-21T02:07:08.266Z,0
2019-01-21T02:08:09.956Z,0
2019-01-21T02:09:11.914Z,0
2019-01-21T02:10:11.389Z,0
2019-01-21T02:11:12.418Z,0
2019-01-21T02:12:13.107Z,0
2019-01-21T02:13:14.074Z,0
2019-01-21T02:14:14.482Z,0
2019-01-21T02:15:14.907Z,0
2019-01-21T02:16:15.791Z,0
2019-01-21T02:17:16.920Z,0
2019-01-21T02:18:18.424Z,0
2019-01-21T02:19:18.402Z,0
2019-01-21T02:20:19.409Z,0
2019-01-21T02:21:20.151Z,0
2019-01-21T02:22:21.118Z,0
2019-01-21T02:23:21.252Z,0
2019-01-21T02:24:21.955Z,0
2019-01-21T02:25:22.920Z,0
2019-01-21T02:26:23.477Z,0
2019-01-21T02:27:24.451Z,0
2019-01-21T02:28:27.099Z,0
2019-01-21T02:29:25.792Z,0
2019-01-21T02:30:26.477Z,0
2019-01-21T02:31:26.466Z,0
2019-01-21T02:32:27.720Z,0
2019-01-21T02:33:28.147Z,0
2019-01-21T02:34:29.687Z,0
2019-01-21T02:35:29.100Z,0
2019-01-21T02:36:30.210Z,0
2019-01-21T02:37:31.708Z,0
2019-01-21T02:38:31.974Z,0
2019-01-21T02:39:32.402Z,0
2019-01-21T02:40:32.828Z,0
2019-01-21T02:41:33.530Z,0
2019-01-21T02:42:34.068Z,0
2019-01-21T02:43:35.315Z,0
2019-01-21T02:44:35.282Z,0
2019-01-21T02:45:36.690Z,0
2019-01-21T02:46:38.944Z,0
2019-01-21T02:47:40.615Z,0
2019-01-21T02:48:38.710Z,0
2019-01-21T02:49:39.845Z,0
2019-01-21T02:50:41.261Z,0
2019-01-21T02:51:42.232Z,0
2019-01-21T02:52:42.930Z,0
2019-01-21T02:53:43.341Z,0
2019-01-21T02:54:44.322Z,0
2019-01-21T02:55:44.737Z,0
2019-01-21T02:56:47.443Z,0
2019-01-21T02:57:47.142Z,0
2019-01-21T02:58:47.830Z,0
2019-01-21T02:59:47.977Z,0
2019-01-21T03:00:49.513Z,0
2019-01-21T03:01:50.197Z,0
2019-01-21T03:02:51.170Z,0
2019-01-21T03:03:51.606Z,0
2019-01-21T03:04:53.028Z,0
2019-01-21T03:05:54.015Z,0
2019-01-21T03:06:57.034Z,0
2019-01-21T03:07:55.961Z,0
2019-01-21T03:08:57.646Z,0
2019-01-21T03:09:58.046Z,0
2019-01-21T03:10:58.185Z,0
2019-01-21T03:11:58.888Z,0
2019-01-21T03:12:59.331Z,0
2019-01-21T03:13:59.758Z,0
2019-01-21T03:15:01.216Z,0
2019-01-21T03:16:02.373Z,0
2019-01-21T03:17:02.283Z,0
2019-01-21T03:18:16.477Z,0
2019-01-21T03:19:15.536Z,0
2019-01-21T03:20:16.506Z,0
2019-01-21T03:21:16.923Z,0
2019-01-21T03:22:17.349Z,0
2019-01-21T03:23:17.757Z,0
2019-01-21T03:24:17.948Z,0
2019-01-21T03:25:18.931Z,0
2019-01-21T03:26:20.522Z,0
2019-01-21T03:27:21.600Z,0
2019-01-21T03:28:22.491Z,0
2019-01-21T03:29:23.304Z,0
2019-01-21T03:30:24.857Z,0
2019-01-21T03:31:25.711Z,0
2019-01-21T03:32:26.838Z,0
2019-01-21T03:33:28.965Z,0
2019-01-21T03:34:29.275Z,0
2019-01-21T03:35:30.694Z,0
2019-01-21T03:36:31.293Z,0
2019-01-21T03:37:32.462Z,0
2019-01-21T03:38:30.993Z,0
2019-01-21T03:39:31.864Z,0
2019-01-21T03:40:32.840Z,0
2019-01-21T03:41:33.823Z,0
2019-01-21T03:42:34.810Z,0
2019-01-21T03:43:35.495Z,0
2019-01-21T03:44:36.309Z,0
2019-01-21T03:45:37.005Z,0
2019-01-21T03:46:38.954Z,0
2019-01-21T03:47:38.680Z,0
2019-01-21T03:48:39.383Z,0
2019-01-21T03:49:39.982Z,0
2019-01-21T03:50:40.683Z,0
2019-01-21T03:51:41.653Z,0
2019-01-21T03:52:42.063Z,0
2019-01-21T03:53:43.051Z,0
2019-01-21T03:54:43.480Z,0
2019-01-21T03:55:44.837Z,0
2019-01-21T03:56:46.309Z,0
2019-01-21T03:57:46.200Z,0
2019-01-21T03:58:47.354Z,0
2019-01-21T03:59:47.651Z,0
2019-01-21T04:00:48.919Z,0
2019-01-21T04:01:48.623Z,0
2019-01-21T04:02:50.052Z,0
2019-01-21T04:03:50.784Z,0
2019-01-21T04:04:51.479Z,0
2019-01-21T04:05:54.346Z,0
2019-01-21T04:06:54.728Z,0
2019-01-21T04:07:54.154Z,0
2019-01-21T04:08:54.642Z,0
2019-01-21T04:09:56.345Z,0
2019-01-21T04:10:57.320Z,0
2019-01-21T04:11:57.080Z,0
2019-01-21T04:12:58.068Z,0
2019-01-21T04:13:59.051Z,0
2019-01-21T04:15:00.455Z,0
2019-01-21T04:16:00.846Z,0
2019-01-21T04:17:01.411Z,0
2019-01-21T04:18:02.667Z,0
2019-01-21T04:19:03.081Z,0
2019-01-21T04:20:03.777Z,0
2019-01-21T04:21:04.460Z,0
2019-01-21T04:22:05.152Z,0
2019-01-21T04:23:05.844Z,0
2019-01-21T04:24:06.534Z,0
2019-01-21T04:25:09.895Z,0
2019-01-21T04:26:09.692Z,0
2019-01-21T04:27:10.677Z,0
2019-01-21T04:28:10.670Z,0
2019-01-21T04:29:10.926Z,0
2019-01-21T04:30:12.350Z,0
2019-01-21T04:31:12.905Z,0
2019-01-21T04:32:13.732Z,0
2019-01-21T04:33:13.695Z,0
2019-01-21T04:34:15.184Z,0
2019-01-21T04:35:14.626Z,0
2019-01-21T04:36:15.042Z,0
2019-01-21T04:37:15.739Z,0
2019-01-21T04:38:16.157Z,0
2019-01-21T04:39:17.126Z,0
2019-01-21T04:40:17.551Z,0
2019-01-21T04:41:19.261Z,0
2019-01-21T04:42:19.941Z,0
2019-01-21T04:43:20.264Z,0
2019-01-21T04:44:21.878Z,0
2019-01-21T04:45:21.915Z,0
2019-01-21T04:46:22.615Z,0
2019-01-21T04:47:24.214Z,0
2019-01-21T04:48:24.194Z,0
2019-01-21T04:48:37.489Z,0
2019-01-21T04:49:38.162Z,0
2019-01-21T04:50:38.887Z,0
2019-01-21T04:51:39.016Z,0
2019-01-21T04:52:39.555Z,0
2019-01-21T04:53:39.694Z,0
2019-01-21T04:54:41.702Z,0
2019-01-21T04:55:41.964Z,0
2019-01-21T04:56:42.312Z,0
2019-01-21T04:57:42.726Z,0
2019-01-21T04:58:44.540Z,0
2019-01-21T04:59:45.132Z,0
2019-01-21T05:00:45.834Z,0
2019-01-21T05:01:46.089Z,0
2019-01-21T05:02:46.389Z,0
2019-01-21T05:03:46.527Z,0
2019-01-21T05:04:48.628Z,0
2019-01-21T05:05:48.426Z,0
2019-01-21T05:06:49.121Z,0
2019-01-21T05:07:49.531Z,0
2019-01-21T05:08:50.222Z,0
2019-01-21T05:09:51.377Z,0
2019-01-21T05:10:52.354Z,0
2019-01-21T05:11:53.049Z,0
2019-01-21T05:12:54.640Z,0
2019-01-21T05:13:56.593Z,0
2019-01-21T05:14:56.534Z,0
2019-01-21T05:15:56.983Z,0
2019-01-21T05:16:57.986Z,0
2019-01-21T05:17:58.244Z,0
2019-01-21T05:18:59.499Z,0
2019-01-21T05:20:00.228Z,0
2019-01-21T05:21:00.976Z,0
2019-01-21T05:22:01.424Z,0
2019-01-21T05:23:03.686Z,0
2019-01-21T05:24:02.669Z,0
2019-01-21T05:25:03.369Z,0
2019-01-21T05:26:04.617Z,0
2019-01-21T05:27:04.591Z,0
2019-01-21T05:28:05.342Z,0
2019-01-21T05:29:05.759Z,0
2019-01-21T05:30:07.158Z,0
2019-01-21T05:31:07.870Z,0
2019-01-21T05:32:09.405Z,0
2019-01-21T05:33:10.107Z,0
2019-01-21T05:34:10.470Z,0
2019-01-21T05:35:12.442Z,0
2019-01-21T05:36:12.143Z,0
2019-01-21T05:37:13.688Z,0
2019-01-21T05:38:13.396Z,0
2019-01-21T05:39:14.087Z,0
2019-01-21T05:40:14.622Z,0
2019-01-21T05:41:15.586Z,0
2019-01-21T05:42:16.554Z,0
2019-01-21T05:43:18.376Z,0
2019-01-21T05:44:18.621Z,0
2019-01-21T05:45:20.204Z,0
2019-01-21T05:46:20.450Z,0
2019-01-21T05:47:20.875Z,0
2019-01-21T05:48:22.045Z,0
2019-01-21T05:49:23.022Z,0
2019-01-21T05:50:24.217Z,0
2019-01-21T05:51:23.898Z,0
2019-01-21T05:52:24.856Z,0
2019-01-21T05:53:25.889Z,0
2019-01-21T05:54:26.870Z,0
2019-01-21T05:55:27.037Z,0
2019-01-21T05:56:28.727Z,0
2019-01-21T05:57:29.147Z,0
2019-01-21T05:58:29.550Z,0
2019-01-21T05:59:30.514Z,0
2019-01-21T06:00:30.464Z,0
2019-01-21T06:01:30.598Z,0
2019-01-21T06:02:31.277Z,0
2019-01-21T06:03:32.235Z,0
2019-01-21T06:04:32.682Z,0
2019-01-21T06:05:33.084Z,0
2019-01-21T06:06:33.841Z,0
2019-01-21T06:07:34.249Z,0
2019-01-21T06:08:34.928Z,0
2019-01-21T06:09:35.886Z,0
2019-01-21T06:10:36.260Z,0
2019-01-21T06:11:36.665Z,0
2019-01-21T06:12:37.347Z,0
2019-01-21T06:13:37.785Z,0
2019-01-21T06:14:39.468Z,0
2019-01-21T06:15:40.424Z,0
2019-01-21T06:16:40.888Z,0
2019-01-21T06:17:41.298Z,0
2019-01-21T06:18:41.698Z,0
2019-01-21T06:19:42.658Z,0
2019-01-21T06:20:42.937Z,0
2019-01-21T06:21:43.632Z,0
2019-01-21T06:22:44.321Z,0
2019-01-21T06:23:46.206Z,0
2019-01-21T06:24:46.573Z,0
2019-01-21T06:25:48.279Z,0
2019-01-21T06:26:48.037Z,4
2019-01-21T06:27:49.408Z,4
2019-01-21T06:28:49.719Z,4
2019-01-21T06:29:50.677Z,0
2019-01-21T06:30:50.880Z,4
2019-01-21T06:31:51.839Z,4
2019-01-21T06:32:51.829Z,4
2019-01-21T06:33:52.808Z,4
2019-01-21T06:34:53.909Z,8
2019-01-21T06:35:54.152Z,4
2019-01-21T06:36:54.142Z,8
2019-01-21T06:37:54.269Z,8
2019-01-21T06:38:55.740Z,12
2019-01-21T06:39:56.629Z,12
2019-01-21T06:40:57.243Z,12
2019-01-21T06:41:58.692Z,12
2019-01-21T06:42:58.105Z,12
2019-01-21T06:43:59.585Z,16
2019-01-21T06:45:00.730Z,20
2019-01-21T06:46:02.001Z,24
2019-01-21T06:47:03.101Z,24
2019-01-21T06:48:03.245Z,28
2019-01-21T06:49:06.595Z,32
2019-01-21T06:50:10.076Z,36
2019-01-21T06:51:10.781Z,40
2019-01-21T06:52:10.131Z,40
2019-01-21T06:53:10.725Z,44
2019-01-21T06:54:11.215Z,52
2019-01-21T06:55:11.909Z,52
2019-01-21T06:56:12.315Z,60
2019-01-21T06:57:12.726Z,64
2019-01-21T06:58:13.721Z,68
2019-01-21T06:59:15.382Z,76
2019-01-21T07:00:18.049Z,84
2019-01-21T07:01:16.057Z,92
2019-01-21T07:02:18.521Z,100
2019-01-21T07:03:19.542Z,104
2019-01-21T07:04:19.420Z,112
2019-01-21T07:05:20.141Z,124
2019-01-21T07:06:20.548Z,132
2019-01-21T07:07:25.899Z,140
2019-01-21T07:07:35.601Z,140
2019-01-21T07:08:35.465Z,152
2019-01-21T07:09:35.426Z,160
2019-01-21T07:10:36.191Z,168
2019-01-21T07:11:36.941Z,180
2019-01-21T07:12:43.043Z,192
2019-01-21T07:12:50.395Z,192
2019-01-21T07:13:54.685Z,200
2019-01-21T07:14:01.051Z,204
2019-01-21T07:15:02.999Z,212
2019-01-21T07:16:04.301Z,224
2019-01-21T07:17:07.311Z,240
2019-01-21T07:18:06.912Z,252
2019-01-21T07:19:13.284Z,260
2019-01-21T07:19:19.025Z,264
2019-01-21T07:20:18.839Z,276
2019-01-21T07:21:19.523Z,288
2019-01-21T07:22:20.653Z,300
2019-01-21T07:23:21.340Z,312
2019-01-21T07:24:23.038Z,324
2019-01-21T07:25:23.449Z,340
2019-01-21T07:26:24.582Z,348
2019-01-21T07:27:25.071Z,360
2019-01-21T07:28:26.600Z,372
2019-01-21T07:29:26.283Z,384
2019-01-21T07:30:26.827Z,400
2019-01-21T07:31:27.418Z,412
2019-01-21T07:32:28.108Z,432
2019-01-21T07:33:28.234Z,444
2019-01-21T07:34:29.372Z,464
2019-01-21T07:35:29.777Z,476
2019-01-21T07:36:31.187Z,492
2019-01-21T07:37:35.396Z,504
2019-01-21T07:38:32.805Z,516
2019-01-21T07:39:39.652Z,528
2019-01-21T07:39:48.632Z,532
2019-01-21T07:40:45.642Z,548
2019-01-21T07:41:46.120Z,564
2019-01-21T07:42:47.422Z,580
2019-01-21T07:43:47.554Z,596
2019-01-21T07:44:48.399Z,608
2019-01-21T07:45:49.529Z,628
2019-01-21T07:46:49.267Z,640
2019-01-21T07:47:52.356Z,656
2019-01-21T07:48:52.117Z,668
2019-01-21T07:49:52.763Z,688
2019-01-21T07:50:52.880Z,704
2019-01-21T07:51:54.562Z,724
2019-01-21T07:52:54.693Z,740
2019-01-21T07:53:55.832Z,760
2019-01-21T07:54:56.518Z,784
2019-01-21T07:55:56.924Z,800
2019-01-21T07:56:58.682Z,824
2019-01-21T07:57:58.815Z,844
2019-01-21T07:59:00.052Z,868
2019-01-21T08:00:00.231Z,884
2019-01-21T08:01:05.043Z,908
2019-01-21T08:02:08.374Z,924
2019-01-21T08:02:21.840Z,928
2019-01-21T08:02:35.667Z,932
2019-01-21T08:02:47.291Z,936
2019-01-21T08:02:56.598Z,936
2019-01-21T08:03:54.268Z,952
2019-01-21T08:04:54.678Z,976
2019-01-21T08:05:55.086Z,992
2019-01-21T08:07:12.533Z,1016
2019-01-21T08:07:25.350Z,1020
2019-01-21T08:07:38.909Z,1024
2019-01-21T08:07:52.247Z,1028
2019-01-21T08:07:59.170Z,1032
2019-01-21T08:08:59.130Z,1044
2019-01-21T08:10:00.225Z,1064
2019-01-21T08:11:01.247Z,1076
2019-01-21T08:12:01.962Z,1088
2019-01-21T08:13:03.205Z,1100
2019-01-21T08:14:04.575Z,1116
2019-01-21T08:15:05.265Z,1124
2019-01-21T08:16:05.675Z,1140
2019-01-21T08:17:06.373Z,1152
2019-01-21T08:18:06.755Z,1164
2019-01-21T08:19:07.487Z,1176
2019-01-21T08:20:07.903Z,1188
2019-01-21T08:21:08.867Z,1204
2019-01-21T08:22:13.647Z,1212
2019-01-21T08:23:11.956Z,1224
2019-01-21T08:24:11.366Z,1236
2019-01-21T08:25:11.811Z,1256
2019-01-21T08:26:13.219Z,1272
2019-01-21T08:27:13.907Z,1292
2019-01-21T08:28:15.151Z,1312
2019-01-21T08:29:16.006Z,1336
2019-01-21T08:30:16.972Z,1364
2019-01-21T08:31:17.426Z,1392
2019-01-21T08:32:17.836Z,1416
2019-01-21T08:33:18.965Z,1444
2019-01-21T08:34:20.668Z,1468
2019-01-21T08:35:20.805Z,1476
2019-01-21T08:36:21.217Z,1492
2019-01-21T08:37:22.192Z,1508
2019-01-21T08:38:28.129Z,1536
2019-01-21T08:38:37.356Z,1540
2019-01-21T08:39:34.919Z,1556
2019-01-21T08:40:37.693Z,1572
2019-01-21T08:41:40.231Z,1584
2019-01-21T08:42:38.647Z,1596
2019-01-21T08:43:40.066Z,1612
2019-01-21T08:44:41.737Z,1628
2019-01-21T08:45:42.426Z,1640
2019-01-21T08:46:43.392Z,1652
2019-01-21T08:47:47.337Z,1664
2019-01-21T08:48:00.323Z,1664
2019-01-21T08:48:08.550Z,1668
2019-01-21T08:49:07.606Z,1680
2019-01-21T08:50:08.278Z,1692
2019-01-21T08:51:10.411Z,1708
2019-01-21T08:52:10.686Z,1724
2019-01-21T08:53:11.095Z,1736
2019-01-21T08:54:11.802Z,1748
2019-01-21T08:55:11.939Z,1760
2019-01-21T08:56:13.068Z,1772
2019-01-21T08:57:14.202Z,1776
2019-01-21T08:58:15.888Z,1780
2019-01-21T08:59:15.710Z,1784
2019-01-21T09:00:18.595Z,1792
2019-01-21T09:01:19.768Z,1800
2019-01-21T09:02:18.538Z,1808
2019-01-21T09:03:20.942Z,1816
2019-01-21T09:04:19.354Z,1816
2019-01-21T09:05:20.765Z,1824
2019-01-21T09:06:20.902Z,1828
2019-01-21T09:07:21.594Z,1832
2019-01-21T09:08:25.015Z,1836
2019-01-21T09:09:23.559Z,1840
2019-01-21T09:10:24.044Z,1844
2019-01-21T09:11:25.292Z,1848
2019-01-21T09:12:27.291Z,1852
2019-01-21T09:13:27.800Z,1852
2019-01-21T09:14:28.489Z,1848
2019-01-21T09:15:28.911Z,1852
2019-01-21T09:16:29.318Z,1848
2019-01-21T09:17:29.934Z,1844
2019-01-21T09:18:30.342Z,1836
2019-01-21T09:19:37.700Z,1836
2019-01-21T09:19:44.146Z,1832
2019-01-21T09:20:45.104Z,1832
2019-01-21T09:21:45.516Z,1836
2019-01-21T09:22:47.211Z,1844
2019-01-21T09:23:50.223Z,1848
2019-01-21T09:24:49.915Z,1856
2019-01-21T09:25:49.881Z,1864
2019-01-21T09:26:50.295Z,1872
2019-01-21T09:27:51.021Z,1880
2019-01-21T09:28:51.742Z,1888
2019-01-21T09:29:52.705Z,1896
2019-01-21T09:30:52.797Z,1904
2019-01-21T09:31:53.385Z,1912
2019-01-21T09:32:54.439Z,1916
2019-01-21T09:33:54.576Z,1920
2019-01-21T09:34:55.284Z,1936
2019-01-21T09:35:57.342Z,1948
2019-01-21T09:37:03.044Z,1960
2019-01-21T09:37:09.504Z,1960
2019-01-21T09:38:10.882Z,1976
2019-01-21T09:39:11.353Z,2000
2019-01-21T09:40:13.041Z,2020
2019-01-21T09:41:13.450Z,2040
2019-01-21T09:42:14.417Z,2068
2019-01-21T09:43:15.109Z,2088
2019-01-21T09:44:15.632Z,2112
2019-01-21T09:45:16.762Z,2136
2019-01-21T09:46:17.546Z,2160
2019-01-21T09:47:18.141Z,2180
2019-01-21T09:48:18.786Z,2204
2019-01-21T09:49:19.471Z,2228
2019-01-21T09:50:20.440Z,2244
2019-01-21T09:51:21.127Z,2276
2019-01-21T09:52:21.652Z,2300
2019-01-21T09:53:21.784Z,2328
2019-01-21T09:54:22.474Z,2356
2019-01-21T09:55:23.437Z,2384
2019-01-21T09:56:23.849Z,2404
2019-01-21T09:57:27.158Z,2448
2019-01-21T09:58:28.246Z,2476
2019-01-21T09:59:28.183Z,2512
2019-01-21T10:00:31.884Z,2540
2019-01-21T10:00:44.863Z,2552
2019-01-21T10:01:43.994Z,2580
2019-01-21T10:02:43.915Z,2612
2019-01-21T10:03:44.603Z,2636
2019-01-21T10:04:45.149Z,2664
2019-01-21T10:05:45.581Z,2700
2019-01-21T10:06:46.548Z,2728
2019-01-21T10:07:46.959Z,2756
2019-01-21T10:08:47.653Z,2640
2019-01-21T10:09:48.097Z,2824
2019-01-21T10:10:49.540Z,2860
2019-01-21T10:11:50.124Z,2888
2019-01-21T10:12:50.260Z,2920
2019-01-21T10:13:51.499Z,2944
2019-01-21T10:14:52.463Z,2972
2019-01-21T10:15:52.876Z,2992
2019-01-21T10:16:53.012Z,3016
2019-01-21T10:17:54.142Z,3032
2019-01-21T10:18:55.553Z,3056
2019-01-21T10:19:55.961Z,3068
2019-01-21T10:20:57.649Z,3088
2019-01-21T10:22:00.683Z,3092
2019-01-21T10:23:00.021Z,3112
2019-01-21T10:24:00.729Z,3132
2019-01-21T10:25:03.969Z,3156
2019-01-21T10:26:02.690Z,3176
2019-01-21T10:27:03.381Z,3204
2019-01-21T10:28:04.070Z,3248
2019-01-21T10:29:04.751Z,3264
2019-01-21T10:30:05.443Z,3280
2019-01-21T10:31:06.411Z,3288
2019-01-21T10:32:06.678Z,3308
2019-01-21T10:33:08.648Z,3324
2019-01-21T10:34:08.388Z,3332
2019-01-21T10:35:08.803Z,3340
2019-01-21T10:36:10.222Z,3360
2019-01-21T10:37:10.531Z,3376
2019-01-21T10:38:10.667Z,3392
2019-01-21T10:39:12.634Z,3412
2019-01-21T10:40:14.621Z,3440
2019-01-21T10:41:13.762Z,3456
2019-01-21T10:42:15.175Z,3500
2019-01-21T10:43:16.929Z,3532
2019-01-21T10:44:16.648Z,3564
2019-01-21T10:45:16.781Z,3592
2019-01-21T10:46:22.688Z,3624
2019-01-21T10:46:30.935Z,3624
2019-01-21T10:47:32.025Z,3644
2019-01-21T10:48:33.109Z,3652
2019-01-21T10:49:37.161Z,3652
2019-01-21T10:50:36.662Z,3656
2019-01-21T10:51:35.429Z,3652
2019-01-21T10:52:36.119Z,3644
2019-01-21T10:53:36.276Z,3644
2019-01-21T10:54:37.015Z,3640
2019-01-21T10:55:37.434Z,3636
2019-01-21T10:56:37.841Z,3636
2019-01-21T10:57:38.712Z,3632
2019-01-21T10:58:38.964Z,3640
2019-01-21T10:59:39.322Z,3640
2019-01-21T11:00:39.847Z,3644
2019-01-21T11:01:39.983Z,3644
2019-01-21T11:02:41.114Z,3648
2019-01-21T11:03:46.523Z,3652
2019-01-21T11:04:44.305Z,3656
2019-01-21T11:05:47.489Z,3660
2019-01-21T11:06:47.834Z,3664
2019-01-21T11:07:48.590Z,3672
2019-01-21T11:08:48.083Z,3668
2019-01-21T11:09:48.476Z,3688
2019-01-21T11:10:49.477Z,3692
2019-01-21T11:11:55.677Z,3700
2019-01-21T11:12:03.244Z,3700
2019-01-21T11:13:03.414Z,3712
2019-01-21T11:14:04.438Z,3720
2019-01-21T11:15:06.185Z,3728
2019-01-21T11:16:05.619Z,3736
2019-01-21T11:17:10.190Z,3740
2019-01-21T11:18:08.030Z,3740
2019-01-21T11:19:08.447Z,3740
2019-01-21T11:20:10.004Z,3740
2019-01-21T11:21:10.965Z,3732
2019-01-21T11:22:11.441Z,3732
2019-01-21T11:23:14.344Z,3728
2019-01-21T11:24:18.289Z,3728
2019-01-21T11:24:28.748Z,3728
2019-01-21T11:25:16.807Z,3720
2019-01-21T11:26:17.224Z,3712
2019-01-21T11:27:18.631Z,3716
2019-01-21T11:28:19.361Z,3712
2019-01-21T11:29:20.395Z,3708
2019-01-21T11:30:20.820Z,3708
2019-01-21T11:31:25.543Z,3700
2019-01-21T11:32:25.956Z,3704
2019-01-21T11:33:26.671Z,3704
2019-01-21T11:34:27.104Z,3696
2019-01-21T11:35:28.514Z,3716
2019-01-21T11:36:28.590Z,3724
2019-01-21T11:37:29.550Z,3732
2019-01-21T11:38:30.115Z,3736
2019-01-21T11:39:30.550Z,3740
2019-01-21T11:40:32.507Z,3740
2019-01-21T11:41:34.683Z,3744
2019-01-21T11:42:33.598Z,3740
2019-01-21T11:43:36.372Z,3744
2019-01-21T11:44:37.057Z,3748
2019-01-21T11:45:37.197Z,3756
2019-01-21T11:46:40.368Z,3764
2019-01-21T11:47:39.031Z,3772
2019-01-21T11:48:39.721Z,3780
2019-01-21T11:49:40.145Z,3788
2019-01-21T11:50:44.167Z,3764
2019-01-21T11:50:56.962Z,3780
2019-01-21T11:51:54.137Z,3784
2019-01-21T11:52:53.274Z,3780
2019-01-21T11:53:53.994Z,3776
2019-01-21T11:54:54.600Z,3772
2019-01-21T11:56:01.393Z,3772
2019-01-21T11:56:12.331Z,3772
2019-01-21T11:57:09.149Z,3768
2019-01-21T11:58:09.561Z,3764
2019-01-21T11:59:10.975Z,3760
2019-01-21T12:00:12.844Z,3748
2019-01-21T12:01:11.823Z,3736
2019-01-21T12:02:12.470Z,3728
2019-01-21T12:03:12.909Z,3696
2019-01-21T12:04:13.088Z,3712
2019-01-21T12:05:13.810Z,3708
2019-01-21T12:06:14.220Z,3716
2019-01-21T12:07:15.052Z,3720
2019-01-21T12:08:16.205Z,3720
2019-01-21T12:09:17.185Z,3720
2019-01-21T12:10:17.599Z,3720
2019-01-21T12:11:18.567Z,3716
2019-01-21T12:12:19.253Z,3716
2019-01-21T12:13:19.977Z,3716
2019-01-21T12:14:20.261Z,3704
2019-01-21T12:15:20.999Z,3720
2019-01-21T12:16:21.985Z,3728
2019-01-21T12:17:22.813Z,3740
2019-01-21T12:18:23.503Z,3748
2019-01-21T12:19:23.793Z,3756
2019-01-21T12:20:24.763Z,3760
2019-01-21T12:21:25.450Z,3756
2019-01-21T12:22:25.910Z,3760
2019-01-21T12:23:28.240Z,3748
2019-01-21T12:24:28.931Z,3736
2019-01-21T12:25:29.809Z,3720
2019-01-21T12:26:29.423Z,3704
2019-01-21T12:27:30.520Z,3680
2019-01-21T12:28:30.692Z,3660
2019-01-21T12:29:31.106Z,3644
2019-01-21T12:30:31.831Z,3628
2019-01-21T12:31:32.516Z,3612
2019-01-21T12:32:32.648Z,3604
2019-01-21T12:33:33.332Z,3584
2019-01-21T12:34:34.021Z,3572
2019-01-21T12:35:34.462Z,3560
2019-01-21T12:36:35.878Z,3540
2019-01-21T12:37:36.967Z,3528
2019-01-21T12:38:37.936Z,3504
2019-01-21T12:39:38.901Z,3484
2019-01-21T12:40:40.934Z,3452
2019-01-21T12:41:40.468Z,3428
2019-01-21T12:42:40.878Z,3396
2019-01-21T12:43:44.316Z,3360
2019-01-21T12:44:43.483Z,3332
2019-01-21T12:45:44.167Z,3296
2019-01-21T12:46:45.224Z,3260
2019-01-21T12:47:45.943Z,3224
2019-01-21T12:48:46.911Z,3192
2019-01-21T12:49:50.945Z,3156
2019-01-21T12:50:48.049Z,3132
2019-01-21T12:51:48.743Z,3108
2019-01-21T12:52:50.637Z,3084
2019-01-21T12:53:50.036Z,3060
2019-01-21T12:54:51.001Z,3044
2019-01-21T12:55:51.975Z,3028
2019-01-21T12:56:51.996Z,3012
2019-01-21T12:57:51.871Z,3000
2019-01-21T12:58:54.658Z,2972
2019-01-21T12:59:55.561Z,2960
2019-01-21T13:00:54.451Z,2940
2019-01-21T13:01:56.529Z,2916
2019-01-21T13:02:55.561Z,2892
2019-01-21T13:03:56.253Z,2864
2019-01-21T13:04:56.971Z,2840
2019-01-21T13:06:00.809Z,2816
2019-01-21T13:06:11.099Z,2808
2019-01-21T13:07:12.251Z,2792
2019-01-21T13:08:12.014Z,2772
2019-01-21T13:09:14.256Z,2752
2019-01-21T13:10:17.497Z,2728
2019-01-21T13:11:16.208Z,2712
2019-01-21T13:12:20.244Z,2688
2019-01-21T13:13:18.380Z,2676
2019-01-21T13:14:19.906Z,2652
2019-01-21T13:15:20.393Z,2628
2019-01-21T13:16:21.522Z,2608
2019-01-21T13:17:22.432Z,2584
2019-01-21T13:18:23.643Z,2564
2019-01-21T13:19:23.912Z,2540
2019-01-21T13:20:31.254Z,2528
2019-01-21T13:20:36.495Z,2528
2019-01-21T13:21:37.480Z,2500
2019-01-21T13:22:38.231Z,2492
2019-01-21T13:23:40.310Z,2480
2019-01-21T13:24:40.509Z,2468
2019-01-21T13:25:40.923Z,2456
2019-01-21T13:26:41.068Z,2444
2019-01-21T13:27:43.043Z,2420
2019-01-21T13:28:42.450Z,2412
2019-01-21T13:29:43.203Z,2392
2019-01-21T13:30:44.516Z,2372
2019-01-21T13:31:50.004Z,2352
2019-01-21T13:31:56.161Z,2348
2019-01-21T13:32:56.434Z,2328
2019-01-21T13:33:57.186Z,2312
2019-01-21T13:34:58.597Z,2296
2019-01-21T13:36:00.518Z,2280
2019-01-21T13:37:01.208Z,2268
2019-01-21T13:38:01.900Z,2256
2019-01-21T13:39:03.868Z,2240
2019-01-21T13:40:03.157Z,2228
2019-01-21T13:41:05.338Z,2200
2019-01-21T13:42:04.746Z,2200
2019-01-21T13:43:05.288Z,2180
2019-01-21T13:44:07.454Z,2160
2019-01-21T13:45:07.432Z,2136
2019-01-21T13:46:11.593Z,2116
2019-01-21T13:47:09.127Z,2080
2019-01-21T13:48:10.161Z,2048
2019-01-21T13:49:12.821Z,2020